Hlavní strana
METAR-TAF:

METAR-TAF

Letiště :

Varna, Bulharsko

zeměpisná šířka: 43-12N, zeměpisná délka: 027-55E, výška: 41 m

Aktuální stav počasí

Zpráva byla vytvořena před 21 hodinami a 35 minutami, v 00:00 UTC
Západojihozápadní vítr 3 kt, proměnlivý mezi jihojihozápadním a západoseverozápadním
Teplota 17°C
Vlhkost vzduchu 82%
Tlak 1014 hPa
Viditelnost 10 km a více
Žádná oblačnost pod 1500 m, nevyskytují se cumulonimby.

METAR: LBWN 210000Z 25003KT 210V300 CAVOK 17/14 Q1014 NOSIG

Čas: 00:35 (21:35 UTC)

Předpověď počasí

Zpráva byla vytvořena před 22 hodinami a 35 minutami, v 23:00 UTC
Předpověď platná od 21 v 00 UTC do 21 v 24 UTC
vítr z různých směrů 4 kt
Viditelnost 10 km a více
Žádná oblačnost pod 1500 m, nevyskytují se cumulonimby.
Změna
od 21 v 07 UTC do 21 v 09 UTC
Východní vítr 14 kt
Změna
od 21 v 18 UTC do 21 v 20 UTC
Severoseverovýchodní vítr 8 kt

TAF: LBWN 202300Z 2100/2124 VRB04KT CAVOK BECMG 2107/2109 10014KT BECMG 2118/2120 03008KT

Stav a předpovědi počasí z více než 4 000 letišť (zprávy METAR a TAF).

Červené a žluté tečky na mapě představují dostupné meteorologické stanice.

Když kurzor umístíte na tečku, zobrazí se název stanice.

Pak kliknutím zobrazíte stav a předpověď počasí.

Chcete-li změnit mapu, kliknutím na zelené tlačítko se znaménkem +mapu přiblížíte, kliknutím na zelené tlačítko se znaménkem – mapu oddálíte a kliknutím na zelené šipky přejdete na sousední mapy.


METAR-TAF: